createdAt,value
2023-05-13T00:00:23.876Z,32.97
2023-05-13T00:03:26.776Z,10.47
2023-05-13T00:06:29.586Z,12.53
2023-05-13T00:09:33.655Z,10.63
2023-05-13T00:12:37.095Z,9.47
2023-05-13T00:15:40.325Z,14.37
2023-05-13T00:18:42.980Z,11.97
2023-05-13T00:21:45.635Z,8.30
2023-05-13T00:24:49.580Z,11.60
2023-05-13T00:27:52.223Z,10.50
2023-05-13T00:30:55.276Z,12.50
2023-05-13T00:33:57.850Z,9.70
2023-05-13T00:37:00.998Z,9.53
2023-05-13T00:40:05.515Z,11.07
2023-05-13T00:43:08.121Z,8.73
2023-05-13T00:46:10.855Z,8.40
2023-05-13T00:49:13.548Z,9.97
2023-05-13T00:52:16.166Z,9.20
2023-05-13T00:55:20.195Z,7.37
2023-05-13T00:58:22.823Z,11.07
2023-05-13T01:01:34.121Z,19.67
2023-05-13T01:04:45.385Z,8.67
2023-05-13T01:07:57.691Z,15.87
2023-05-13T01:11:05.147Z,17.50
2023-05-13T01:14:12.497Z,16.10
2023-05-13T01:17:19.364Z,10.07
2023-05-13T01:20:24.507Z,12.37
2023-05-13T01:23:28.553Z,8.87
2023-05-13T01:26:31.301Z,10.93
2023-05-13T01:29:34.253Z,11.27
2023-05-13T01:32:38.488Z,8.97
2023-05-13T01:35:41.306Z,12.73
2023-05-13T01:38:45.983Z,11.03
2023-05-13T01:41:48.610Z,11.30
2023-05-13T01:44:52.580Z,11.23
2023-05-13T01:47:55.173Z,11.43
2023-05-13T01:50:57.790Z,8.00
2023-05-13T01:54:01.738Z,12.37
2023-05-13T01:57:04.649Z,13.03
2023-05-13T02:00:08.666Z,18.60
2023-05-13T02:03:11.336Z,8.83
2023-05-13T02:06:14.013Z,11.93
2023-05-13T02:09:17.942Z,12.77
2023-05-13T02:12:20.615Z,9.87
2023-05-13T02:15:23.256Z,12.27
2023-05-13T02:18:25.917Z,13.23
2023-05-13T02:21:28.523Z,13.70
2023-05-13T02:24:32.566Z,12.60
2023-05-13T02:27:35.162Z,16.47
2023-05-13T02:30:37.929Z,13.27
2023-05-13T02:33:40.521Z,13.00
2023-05-13T02:36:43.118Z,17.27
2023-05-13T02:39:47.049Z,16.20
2023-05-13T02:42:49.844Z,14.80
2023-05-13T02:45:52.528Z,17.20
2023-05-13T02:48:55.117Z,14.17
2023-05-13T02:51:57.737Z,17.20
2023-05-13T02:55:01.817Z,16.30
2023-05-13T02:58:04.491Z,13.27
2023-05-13T03:01:07.217Z,15.33
2023-05-13T03:04:09.878Z,14.93
2023-05-13T03:07:12.453Z,15.60
2023-05-13T03:10:16.460Z,18.17
2023-05-13T03:13:19.117Z,18.03
2023-05-13T03:16:21.729Z,19.67
2023-05-13T03:19:25.021Z,11.97
2023-05-13T03:22:27.796Z,15.47
2023-05-13T03:25:31.730Z,16.63
2023-05-13T03:28:34.365Z,17.20
2023-05-13T03:31:37.060Z,14.13
2023-05-13T03:34:39.713Z,14.67
2023-05-13T03:37:42.295Z,20.37
2023-05-13T03:40:46.943Z,17.00
2023-05-13T03:43:49.529Z,25.53
2023-05-13T03:46:52.222Z,15.63
2023-05-13T03:49:54.878Z,17.67
2023-05-13T03:52:57.875Z,13.40
2023-05-13T03:56:01.824Z,15.10
2023-05-13T03:59:04.422Z,16.93
2023-05-13T04:02:07.315Z,18.47
2023-05-13T04:05:10.897Z,13.43
2023-05-13T04:08:13.782Z,19.77
2023-05-13T04:11:17.755Z,18.13
2023-05-13T04:14:20.875Z,14.17
2023-05-13T04:17:23.476Z,14.73
2023-05-13T04:20:26.434Z,17.90
2023-05-13T04:23:29.005Z,17.10
2023-05-13T04:26:33.095Z,20.47
2023-05-13T04:29:35.638Z,17.20
2023-05-13T04:32:39.150Z,18.73
2023-05-13T04:35:41.771Z,16.90
2023-05-13T04:38:44.367Z,15.00
2023-05-13T04:41:48.442Z,18.00
2023-05-13T04:44:51.115Z,18.50
2023-05-13T04:47:54.892Z,17.40
2023-05-13T04:50:58.769Z,15.07
2023-05-13T04:54:01.916Z,19.20
2023-05-13T04:57:06.559Z,15.90
2023-05-13T05:00:10.695Z,14.53
2023-05-13T05:03:13.322Z,16.37
2023-05-13T05:06:15.959Z,13.03
2023-05-13T05:09:18.886Z,15.10
2023-05-13T05:12:22.849Z,14.83
2023-05-13T05:15:25.517Z,16.07
2023-05-13T05:18:28.214Z,13.97
2023-05-13T05:21:30.856Z,13.23
2023-05-13T05:24:33.482Z,14.13
2023-05-13T05:27:37.435Z,16.97
2023-05-13T05:30:40.379Z,13.67
2023-05-13T05:33:43.134Z,10.70
2023-05-13T05:36:45.766Z,12.60
2023-05-13T05:39:48.349Z,9.70
2023-05-13T05:42:52.297Z,14.20
2023-05-13T05:45:54.953Z,13.67
2023-05-13T05:48:57.562Z,14.03
2023-05-13T05:52:00.188Z,8.73
2023-05-13T05:55:03.381Z,13.20
2023-05-13T05:58:07.391Z,12.03
2023-05-13T06:01:10.270Z,13.57
2023-05-13T06:04:13.050Z,16.70
2023-05-13T06:07:15.797Z,9.47
2023-05-13T06:10:18.452Z,8.80
2023-05-13T06:13:22.486Z,11.27
2023-05-13T06:16:25.403Z,11.13
2023-05-13T06:19:28.031Z,8.33
2023-05-13T06:22:30.726Z,13.03
2023-05-13T06:25:33.405Z,10.53
2023-05-13T06:28:37.314Z,6.53
2023-05-13T06:31:39.936Z,7.80
2023-05-13T06:34:45.606Z,8.07
2023-05-13T06:37:48.178Z,10.07
2023-05-13T06:40:50.746Z,7.83
2023-05-13T06:43:54.666Z,7.10
2023-05-13T06:46:57.259Z,8.50
2023-05-13T06:49:59.864Z,8.30
2023-05-13T06:53:03.592Z,13.03
2023-05-13T06:56:06.722Z,7.20
2023-05-13T06:59:10.768Z,8.10
2023-05-13T07:02:13.366Z,6.77
2023-05-13T07:05:15.982Z,7.53
2023-05-13T07:08:18.831Z,7.37
2023-05-13T07:11:22.378Z,11.80
2023-05-13T07:14:26.326Z,11.33
2023-05-13T07:17:29.207Z,9.93
2023-05-13T07:20:31.849Z,7.60
2023-05-13T07:23:35.730Z,11.20
2023-05-13T07:26:38.745Z,7.07
2023-05-13T07:29:42.690Z,9.93
2023-05-13T07:32:45.343Z,10.07
2023-05-13T07:35:47.968Z,10.33
2023-05-13T07:38:50.978Z,8.47
2023-05-13T07:41:53.588Z,7.90
2023-05-13T07:44:57.542Z,6.63
2023-05-13T07:48:00.227Z,6.87
2023-05-13T07:51:02.949Z,9.30
2023-05-13T07:54:05.604Z,5.63
2023-05-13T07:57:08.287Z,6.37
2023-05-13T08:00:13.242Z,9.57
2023-05-13T08:03:16.055Z,11.80
2023-05-13T08:06:18.740Z,7.80
2023-05-13T08:09:21.335Z,6.73
2023-05-13T08:12:23.954Z,6.50
2023-05-13T08:15:28.979Z,11.70
2023-05-13T08:18:31.578Z,7.83
2023-05-13T08:21:34.213Z,9.17
2023-05-13T08:24:36.764Z,82.73
2023-05-13T08:27:39.414Z,69.03
2023-05-13T08:30:44.295Z,105.90
2023-05-13T08:33:48.499Z,25.23
2023-05-13T08:36:51.092Z,19.07
2023-05-13T08:39:55.901Z,63.67
2023-05-13T08:43:00.535Z,23.47
2023-05-13T08:46:05.235Z,20.47
2023-05-13T08:49:09.385Z,20.70
2023-05-13T08:52:12.075Z,10.90
2023-05-13T08:55:15.605Z,23.83
2023-05-13T08:58:18.207Z,8.25
2023-05-13T09:01:23.974Z,10.77
2023-05-13T09:04:26.957Z,8.73
2023-05-13T09:07:31.468Z,8.57
2023-05-13T09:10:34.055Z,9.75
2023-05-13T09:13:37.350Z,6.35
2023-05-13T09:16:41.331Z,10.90
2023-05-13T09:19:44.051Z,8.15
2023-05-13T09:22:48.113Z,8.32
2023-05-13T09:25:50.771Z,13.35
2023-05-13T09:29:17.773Z,10.73
2023-05-13T09:32:21.729Z,12.30
2023-05-13T09:35:24.317Z,9.13
2023-05-13T09:38:29.005Z,10.15
2023-05-13T09:41:32.378Z,6.38
2023-05-13T09:44:35.067Z,10.38
2023-05-13T09:47:39.182Z,8.43
2023-05-13T09:50:48.643Z,6.60
2023-05-13T09:53:51.220Z,7.60
2023-05-13T09:56:59.504Z,8.35
2023-05-13T10:00:05.155Z,8.60
2023-05-13T10:03:09.542Z,8.35
2023-05-13T10:06:12.282Z,11.23
2023-05-13T10:09:17.493Z,12.95
2023-05-13T10:12:22.121Z,4.70
2023-05-13T10:15:25.914Z,9.02
2023-05-13T10:18:30.279Z,5.40
2023-05-13T10:21:33.540Z,10.45
2023-05-13T10:24:38.686Z,7.88
2023-05-13T10:27:43.244Z,6.57
2023-05-13T10:30:46.606Z,10.32
2023-05-13T10:33:53.257Z,7.85
2023-05-13T10:37:10.850Z,10.80
2023-05-13T10:40:30.135Z,4.95
2023-05-13T10:43:33.111Z,4.80
2023-05-13T10:46:39.251Z,10.30
2023-05-13T10:49:51.850Z,7.13
2023-05-13T10:52:58.211Z,6.30
2023-05-13T10:56:01.038Z,9.18
2023-05-13T10:59:05.461Z,6.53
2023-05-13T11:02:22.002Z,10.45
2023-05-13T11:05:26.168Z,11.65
2023-05-13T11:08:38.880Z,5.63
2023-05-13T11:11:41.851Z,5.85
2023-05-13T11:14:44.981Z,5.68
2023-05-13T11:17:47.686Z,7.18
2023-05-13T11:20:55.070Z,5.72
2023-05-13T11:23:59.188Z,5.78
2023-05-13T11:27:14.588Z,6.05
2023-05-13T11:30:24.186Z,9.88
2023-05-13T11:34:02.008Z,8.57
2023-05-13T11:37:11.482Z,5.00
2023-05-13T11:40:22.731Z,8.95
2023-05-13T11:43:25.662Z,7.22
2023-05-13T11:46:28.335Z,11.82
2023-05-13T11:49:39.705Z,5.43
2023-05-13T11:52:43.721Z,5.97
2023-05-13T11:55:46.582Z,4.13
2023-05-13T11:58:49.370Z,6.28
2023-05-13T12:02:02.086Z,9.05
2023-05-13T12:05:06.119Z,7.85
2023-05-13T12:08:11.854Z,6.60
2023-05-13T12:11:14.956Z,7.15
2023-05-13T12:14:18.240Z,6.80
2023-05-13T12:17:22.285Z,8.27
2023-05-13T12:20:25.715Z,6.63
2023-05-13T12:23:39.794Z,6.57
2023-05-13T12:26:42.796Z,3.55
2023-05-13T12:29:45.394Z,13.00
2023-05-13T12:32:48.029Z,11.75
2023-05-13T12:35:52.424Z,7.57
2023-05-13T12:39:00.234Z,16.60
2023-05-13T12:42:03.290Z,6.15
2023-05-13T12:45:07.207Z,4.63
2023-05-13T12:48:10.137Z,6.32
2023-05-13T12:51:12.767Z,8.07
2023-05-13T12:54:16.703Z,9.70
2023-05-13T12:57:20.509Z,4.15
2023-05-13T13:00:23.335Z,8.77
2023-05-13T13:03:26.098Z,7.25
2023-05-13T13:06:29.938Z,5.00
2023-05-13T13:09:33.900Z,8.10
2023-05-13T13:12:36.484Z,7.57
2023-05-13T13:15:39.336Z,4.38
2023-05-13T13:18:42.566Z,4.55
2023-05-13T13:21:45.189Z,8.48
2023-05-13T13:24:49.150Z,5.50
2023-05-13T13:27:51.784Z,7.03
2023-05-13T13:30:54.515Z,7.57
2023-05-13T13:33:58.897Z,9.93
2023-05-13T13:37:01.540Z,7.43
2023-05-13T13:40:06.499Z,5.32
2023-05-13T13:43:09.456Z,4.03
2023-05-13T13:46:12.076Z,3.65
2023-05-13T13:49:23.232Z,6.15
2023-05-13T13:52:28.467Z,6.13
2023-05-13T13:55:32.455Z,6.47
2023-05-13T13:58:35.389Z,4.55
2023-05-13T14:01:39.406Z,5.35
2023-05-13T14:04:42.078Z,3.80
2023-05-13T14:07:44.696Z,5.53
2023-05-13T14:10:48.720Z,8.07
2023-05-13T14:13:51.326Z,4.90
2023-05-13T14:16:53.994Z,5.50
2023-05-13T14:19:56.610Z,5.13
2023-05-13T14:22:59.237Z,3.92
2023-05-13T14:26:03.241Z,7.50
2023-05-13T14:29:05.856Z,3.63
2023-05-13T14:32:08.783Z,3.75
2023-05-13T14:35:11.389Z,10.68
2023-05-13T14:38:13.980Z,4.90
2023-05-13T14:41:19.817Z,5.03
2023-05-13T14:44:22.470Z,5.07
2023-05-13T14:47:25.451Z,5.15
2023-05-13T14:50:28.073Z,5.75
2023-05-13T14:53:30.718Z,5.25
2023-05-13T14:56:34.719Z,4.15
2023-05-13T14:59:37.388Z,5.38
2023-05-13T15:02:40.172Z,5.05
2023-05-13T15:05:44.144Z,5.53
2023-05-13T15:08:46.991Z,8.80
2023-05-13T15:11:50.969Z,3.72
2023-05-13T15:14:54.137Z,4.80
2023-05-13T15:17:56.769Z,6.18
2023-05-13T15:20:59.427Z,6.07
2023-05-13T15:24:02.019Z,5.13
2023-05-13T15:27:06.572Z,6.25
2023-05-13T15:30:09.920Z,7.43
2023-05-13T15:33:12.586Z,3.75
2023-05-13T15:36:15.256Z,9.32
2023-05-13T15:39:18.036Z,6.53
2023-05-13T15:42:23.006Z,5.88
2023-05-13T15:45:25.639Z,3.90
2023-05-13T15:48:28.402Z,10.48
2023-05-13T15:51:31.611Z,7.22
2023-05-13T15:54:34.874Z,6.78
2023-05-13T15:57:39.701Z,9.13
2023-05-13T16:00:42.362Z,6.70
2023-05-13T16:03:45.032Z,5.40
2023-05-13T16:06:47.628Z,4.22
2023-05-13T16:09:50.188Z,6.38
2023-05-13T16:12:54.118Z,4.97
2023-05-13T16:15:56.954Z,4.85
2023-05-13T16:18:59.628Z,9.68
2023-05-13T16:22:25.196Z,6.57
2023-05-13T16:25:27.826Z,5.28
2023-05-13T16:28:31.849Z,6.90
2023-05-13T16:31:34.730Z,3.38
2023-05-13T16:34:37.406Z,4.10
2023-05-13T16:37:40.002Z,2.67
2023-05-13T16:40:42.648Z,5.82
2023-05-13T16:43:46.575Z,3.45
2023-05-13T16:46:49.176Z,10.65
2023-05-13T16:49:51.756Z,4.25
2023-05-13T16:52:54.486Z,5.80
2023-05-13T16:55:57.142Z,5.05
2023-05-13T16:59:01.146Z,4.18
2023-05-13T17:02:03.788Z,3.65
2023-05-13T17:05:07.241Z,4.68
2023-05-13T17:08:09.908Z,8.82
2023-05-13T17:11:16.526Z,5.47
2023-05-13T17:14:20.651Z,4.63
2023-05-13T17:17:23.238Z,4.82
2023-05-13T17:20:25.904Z,5.93
2023-05-13T17:23:28.484Z,4.50
2023-05-13T17:26:31.163Z,3.10
2023-05-13T17:29:35.102Z,7.30
2023-05-13T17:32:37.732Z,8.90
2023-05-13T17:35:40.468Z,5.47
2023-05-13T17:38:43.199Z,5.47
2023-05-13T17:41:46.053Z,4.50
2023-05-13T17:44:50.009Z,3.97
2023-05-13T17:47:52.746Z,9.20
2023-05-13T17:50:55.492Z,4.57
2023-05-13T17:53:58.095Z,6.43
2023-05-13T17:57:00.727Z,4.50
2023-05-13T18:00:06.884Z,3.97
2023-05-13T18:03:09.886Z,5.23
2023-05-13T18:06:12.599Z,5.87
2023-05-13T18:09:15.186Z,4.27
2023-05-13T18:12:18.116Z,4.83
2023-05-13T18:15:22.053Z,3.50
2023-05-13T18:18:24.738Z,8.20
2023-05-13T18:21:28.800Z,4.67
2023-05-13T18:24:31.370Z,10.73
2023-05-13T18:27:33.976Z,7.80
2023-05-13T18:30:37.937Z,6.03
2023-05-13T18:33:40.655Z,4.53
2023-05-13T18:36:43.322Z,5.23
2023-05-13T18:39:45.916Z,4.30
2023-05-13T18:42:48.565Z,5.43
2023-05-13T18:45:53.199Z,8.80
2023-05-13T18:48:56.580Z,8.00
2023-05-13T18:51:59.358Z,5.13
2023-05-13T18:55:04.106Z,6.00
2023-05-13T18:58:06.672Z,10.43
2023-05-13T19:01:10.711Z,6.17
2023-05-13T19:04:15.200Z,5.90
2023-05-13T19:07:17.963Z,6.90
2023-05-13T19:10:20.687Z,3.97
2023-05-13T19:13:25.391Z,5.83
2023-05-13T19:16:32.735Z,8.87
2023-05-13T19:19:35.412Z,5.47
2023-05-13T19:22:38.411Z,6.33
2023-05-13T19:25:42.677Z,6.70
2023-05-13T19:28:47.016Z,5.07
2023-05-13T19:31:50.996Z,6.43
2023-05-13T19:34:53.677Z,3.87
2023-05-13T19:37:56.760Z,4.87
2023-05-13T19:40:59.364Z,3.53
2023-05-13T19:44:02.349Z,8.97
2023-05-13T19:47:06.536Z,5.50
2023-05-13T19:50:09.726Z,8.37
2023-05-13T19:53:12.537Z,6.83
2023-05-13T19:56:15.200Z,7.93
2023-05-13T19:59:17.786Z,5.43
2023-05-13T20:02:22.043Z,7.33
2023-05-13T20:05:24.656Z,9.30
2023-05-13T20:08:29.488Z,4.93
2023-05-13T20:11:32.546Z,7.67
2023-05-13T20:14:45.546Z,10.50
2023-05-13T20:17:49.639Z,7.13
2023-05-13T20:20:53.596Z,4.93
2023-05-13T20:23:56.391Z,6.30
2023-05-13T20:26:58.969Z,7.87
2023-05-13T20:30:02.046Z,5.37
2023-05-13T20:33:06.406Z,10.37
2023-05-13T20:36:09.123Z,6.70
2023-05-13T20:39:11.704Z,6.67
2023-05-13T20:42:14.298Z,5.97
2023-05-13T20:45:16.892Z,6.77
2023-05-13T20:48:20.831Z,7.20
2023-05-13T20:51:23.546Z,4.43
2023-05-13T20:54:26.184Z,7.50
2023-05-13T20:57:28.811Z,8.13
2023-05-13T21:00:31.421Z,7.43
2023-05-13T21:03:35.453Z,6.67
2023-05-13T21:06:38.192Z,10.77
2023-05-13T21:09:40.843Z,8.03
2023-05-13T21:12:47.492Z,11.53
2023-05-13T21:15:51.904Z,12.00
2023-05-13T21:18:56.076Z,5.63
2023-05-13T21:21:58.685Z,9.17
2023-05-13T21:25:01.298Z,6.63
2023-05-13T21:28:04.788Z,5.60
2023-05-13T21:31:07.453Z,9.27
2023-05-13T21:34:11.428Z,7.20
2023-05-13T21:37:14.291Z,6.93
2023-05-13T21:40:17.234Z,5.67
2023-05-13T21:43:19.856Z,9.93
2023-05-13T21:46:22.495Z,8.07
2023-05-13T21:49:26.489Z,8.73
2023-05-13T21:52:29.228Z,8.53
2023-05-13T21:55:34.718Z,6.47
2023-05-13T21:58:37.361Z,13.57
2023-05-13T22:01:39.957Z,6.97
2023-05-13T22:04:43.983Z,8.37
2023-05-13T22:07:46.611Z,9.87
2023-05-13T22:10:49.168Z,8.37
2023-05-13T22:13:51.858Z,7.73
2023-05-13T22:17:07.806Z,6.90
2023-05-13T22:20:13.855Z,5.80
2023-05-13T22:23:16.807Z,5.43
2023-05-13T22:26:19.421Z,7.97
2023-05-13T22:29:22.397Z,5.97
2023-05-13T22:32:25.404Z,5.63
2023-05-13T22:35:29.753Z,10.60
2023-05-13T22:38:32.318Z,13.87
2023-05-13T22:41:34.896Z,9.10
2023-05-13T22:44:37.977Z,4.67
2023-05-13T22:47:40.668Z,6.33
2023-05-13T22:50:44.679Z,7.70
2023-05-13T22:53:47.263Z,5.93
2023-05-13T22:56:49.817Z,7.33
2023-05-13T22:59:52.408Z,7.63
2023-05-13T23:02:55.052Z,6.63
2023-05-13T23:05:59.096Z,7.60
2023-05-13T23:09:01.721Z,7.27
2023-05-13T23:12:04.637Z,9.33
2023-05-13T23:15:08.364Z,7.23
2023-05-13T23:18:10.981Z,6.80
2023-05-13T23:21:14.958Z,6.33
2023-05-13T23:24:17.553Z,5.63
2023-05-13T23:27:20.161Z,4.93
2023-05-13T23:30:23.238Z,4.83
2023-05-13T23:33:26.163Z,6.50
2023-05-13T23:36:30.092Z,6.00
2023-05-13T23:39:32.757Z,8.07
2023-05-13T23:42:35.958Z,5.80
2023-05-13T23:45:38.652Z,6.63
2023-05-13T23:48:41.239Z,7.17
2023-05-13T23:51:45.422Z,9.83
2023-05-13T23:54:48.012Z,5.77
2023-05-13T23:57:50.788Z,6.87
